Time;durP1;ratioP1;P1;durP2;ratioP2;P2;SDS_P1;SDS_P2;PMS_P1;PMS_P2;Temp;Humidity;BMP_temperature;BMP_pressure;BME280_temperature;BME280_humidity;BME280_pressure;Samples;Min_cycle;Max_cycle;Signal;HPM_P1;HPM_P2
2021/01/30 00:01:52;;;;;;;76.93;35.10;;;;;;;-0.73;77.30;98300.02;1645759;87;21074;-69
2021/01/30 00:04:18;;;;;;;79.87;35.90;;;;;;;-0.66;77.20;98302.44;1645589;87;21244;-70
2021/01/30 00:06:49;;;;;;;71.83;36.23;;;;;;;-0.57;77.05;98306.03;1645754;87;22650;-68
2021/01/30 00:09:15;;;;;;;77.97;36.68;;;;;;;-0.47;76.88;98304.27;1643461;87;21547;-69
2021/01/30 00:11:41;;;;;;;76.13;36.47;;;;;;;-0.39;76.68;98304.45;1645072;87;21035;-70
2021/01/30 00:14:07;;;;;;;80.47;37.40;;;;;;;-0.31;76.43;98306.39;1645631;87;21085;-69
2021/01/30 00:16:32;;;;;;;79.77;36.63;;;;;;;-0.32;76.18;98302.14;1645749;87;21427;-69
2021/01/30 00:18:58;;;;;;;84.90;39.17;;;;;;;-0.31;75.94;98305.55;1645957;87;21728;-71
2021/01/30 00:21:24;;;;;;;79.03;38.37;;;;;;;-0.30;76.02;98307.20;1645357;87;20982;-70
2021/01/30 00:23:52;;;;;;;74.17;36.53;;;;;;;-0.32;75.87;98306.52;1632724;86;21089;-70
2021/01/30 00:26:17;;;;;;;77.37;37.78;;;;;;;-0.40;75.86;98301.99;1624282;87;21290;-70
2021/01/30 00:28:43;;;;;;;80.27;39.97;;;;;;;-0.27;75.98;98304.34;1625530;86;21425;-70
2021/01/30 00:31:09;;;;;;;75.37;36.60;;;;;;;-0.35;75.65;98293.81;1625885;87;21000;-70
2021/01/30 00:33:34;;;;;;;79.70;36.87;;;;;;;-0.32;75.71;98293.55;1626001;87;20971;-70
2021/01/30 00:36:00;;;;;;;78.43;37.43;;;;;;;-0.26;75.70;98300.80;1626154;87;23972;-70
2021/01/30 00:38:26;;;;;;;77.73;37.43;;;;;;;-0.25;75.43;98290.30;1628099;87;21093;-70
2021/01/30 00:40:52;;;;;;;71.30;34.13;;;;;;;-0.27;75.10;98280.99;1626258;87;21526;-71
2021/01/30 00:43:17;;;;;;;72.23;35.13;;;;;;;-0.27;75.25;98278.41;1625957;87;21772;-70
2021/01/30 00:45:43;;;;;;;71.80;35.40;;;;;;;-0.27;75.08;98284.40;1627676;86;20986;-72
2021/01/30 00:48:09;;;;;;;72.03;36.30;;;;;;;-0.29;75.28;98280.32;1624819;86;20957;-71
2021/01/30 00:50:35;;;;;;;76.70;37.40;;;;;;;-0.24;75.38;98282.03;1625038;87;21636;-70
2021/01/30 00:53:00;;;;;;;70.03;33.80;;;;;;;-0.30;75.06;98280.78;1626511;87;22190;-70
2021/01/30 00:55:26;;;;;;;68.30;33.93;;;;;;;-0.29;74.98;98270.75;1624764;87;20982;-69
2021/01/30 00:57:52;;;;;;;65.03;33.13;;;;;;;-0.28;75.00;98277.59;1624820;87;20995;-70
2021/01/30 01:00:22;;;;;;;60.97;29.60;;;;;;;-0.33;74.74;98272.45;1625537;87;22940;-69
2021/01/30 01:02:49;;;;;;;67.85;34.73;;;;;;;-0.41;74.73;98270.03;1625520;86;21189;-68
2021/01/30 01:05:15;;;;;;;67.20;32.45;;;;;;;-0.49;75.38;98255.63;1627801;86;21254;-70
2021/01/30 01:07:43;;;;;;;75.95;36.70;;;;;;;-0.49;75.19;98276.37;1624236;87;21662;-70
2021/01/30 01:10:10;;;;;;;65.62;32.17;;;;;;;-0.61;75.55;98278.72;1625761;87;21220;-71
2021/01/30 01:12:36;;;;;;;71.92;34.08;;;;;;;-0.76;75.90;98272.60;1628969;87;21217;-73
2021/01/30 01:15:03;;;;;;;67.30;33.97;;;;;;;-0.91;76.59;98270.02;1625882;87;21059;-71
2021/01/30 01:17:29;;;;;;;64.03;32.30;;;;;;;-1.03;77.12;98267.16;1624677;87;21241;-71
2021/01/30 01:19:55;;;;;;;71.70;32.60;;;;;;;-1.05;77.47;98270.37;1626550;87;21904;-70
2021/01/30 01:22:21;;;;;;;68.90;33.13;;;;;;;-1.15;77.78;98269.84;1624417;87;21012;-71
2021/01/30 01:24:46;;;;;;;69.83;32.93;;;;;;;-1.09;77.95;98273.21;1630296;86;21432;-69
2021/01/30 01:27:12;;;;;;;60.17;31.07;;;;;;;-1.05;77.92;98273.77;1628262;87;20955;-70
2021/01/30 01:29:38;;;;;;;65.80;32.77;;;;;;;-1.10;77.69;98276.74;1628123;86;21413;-73
2021/01/30 01:32:04;;;;;;;72.47;35.37;;;;;;;-1.23;78.11;98276.11;1629502;87;22500;-72
2021/01/30 01:34:30;;;;;;;72.60;34.60;;;;;;;-1.22;78.23;98273.06;1627161;86;21249;-71
2021/01/30 01:37:02;;;;;;;68.70;33.17;;;;;;;-1.15;78.21;98268.55;1625897;87;21649;-71
2021/01/30 01:39:29;;;;;;;72.00;35.38;;;;;;;-1.29;78.37;98267.55;1601437;87;21268;-71
2021/01/30 01:42:17;;;;;;;78.15;37.08;;;;;;;-1.36;78.88;98263.37;1628834;87;21694;-70
2021/01/30 01:44:43;;;;;;;77.32;35.83;;;;;;;-1.43;79.43;98257.05;1626868;87;21284;-71
2021/01/30 01:47:20;;;;;;;73.43;36.40;;;;;;;-1.53;79.94;98258.29;1629468;87;21058;-70
2021/01/30 01:49:45;;;;;;;77.87;36.42;;;;;;;-1.41;79.96;98265.98;1629628;87;21224;-70
2021/01/30 01:52:32;;;;;;;80.70;38.83;;;;;;;-1.34;79.94;98267.12;1628231;87;20951;-70
2021/01/30 01:55:12;;;;;;;79.72;38.05;;;;;;;-1.32;79.95;98263.92;1626516;87;22061;-71
2021/01/30 01:57:48;;;;;;;80.75;39.55;;;;;;;-1.32;80.22;98261.34;1627660;86;21248;-70
2021/01/30 02:00:15;;;;;;;85.20;42.15;;;;;;;-1.33;80.67;98264.89;1629124;87;21276;-70
2021/01/30 02:02:41;;;;;;;84.77;40.30;;;;;;;-1.31;80.62;98262.98;1628463;87;21173;-71
2021/01/30 02:05:32;;;;;;;70.33;35.20;;;;;;;-1.38;80.94;98267.02;1629904;87;21056;-70
2021/01/30 02:08:01;;;;;;;91.37;43.78;;;;;;;-1.34;81.16;98269.72;1627595;87;21261;-69
2021/01/30 02:10:29;;;;;;;93.17;41.65;;;;;;;-1.51;81.92;98264.63;1627932;87;21267;-70
2021/01/30 02:13:04;;;;;;;83.55;38.98;;;;;;;-1.37;81.73;98268.67;1628729;87;25779;-70
2021/01/30 02:15:30;;;;;;;86.05;40.60;;;;;;;-1.27;81.76;98263.09;1626986;87;21173;-70
2021/01/30 02:18:20;;;;;;;89.67;41.87;;;;;;;-1.12;81.24;98263.11;1628757;87;21066;-71
2021/01/30 02:21:33;;;;;;;81.45;38.70;;;;;;;-1.11;81.33;98270.39;1627421;86;21363;-70
2021/01/30 02:24:28;;;;;;;83.15;39.45;;;;;;;-1.02;81.15;98259.75;1627051;87;21265;-70
2021/01/30 02:27:18;;;;;;;87.57;40.28;;;;;;;-0.93;80.96;98262.86;1646133;86;21273;-70
2021/01/30 02:30:18;;;;;;;89.80;42.98;;;;;;;-0.82;80.74;98265.84;1601814;87;21164;-69
2021/01/30 02:33:27;;;;;;;102.05;44.40;;;;;;;-0.73;80.42;98262.43;1625716;87;21185;-70
2021/01/30 02:36:35;;;;;;;92.47;43.48;;;;;;;-0.82;80.84;98270.53;1627367;87;21211;-70
2021/01/30 02:39:12;;;;;;;86.22;41.23;;;;;;;-0.78;80.96;98253.78;1626060;87;21279;-71
2021/01/30 02:41:42;;;;;;;97.78;45.65;;;;;;;-0.86;81.54;98263.95;1627388;86;21271;-69
2021/01/30 02:44:11;;;;;;;93.35;45.80;;;;;;;-0.92;81.44;98258.00;1623985;87;21313;-69
2021/01/30 02:46:40;;;;;;;93.82;45.95;;;;;;;-1.04;81.92;98257.28;1626976;87;21205;-70
2021/01/30 02:49:12;;;;;;;93.95;45.92;;;;;;;-0.97;82.00;98263.57;1624873;87;21267;-70
2021/01/30 02:51:41;;;;;;;100.33;48.75;;;;;;;-1.01;82.02;98261.36;1629234;86;21663;-70
2021/01/30 02:54:08;;;;;;;94.83;46.37;;;;;;;-1.22;82.95;98262.22;1626128;87;21216;-70
2021/01/30 02:56:34;;;;;;;87.90;41.33;;;;;;;-1.27;82.86;98257.91;1627684;87;21675;-70
2021/01/30 02:59:19;;;;;;;91.13;45.37;;;;;;;-1.18;82.92;98250.67;1628624;87;20963;-69
2021/01/30 03:01:45;;;;;;;96.90;46.00;;;;;;;-1.15;83.23;98260.77;1625644;87;21221;-70
2021/01/30 03:04:17;;;;;;;82.43;42.47;;;;;;;-1.14;83.24;98254.63;1626232;87;20955;-71
2021/01/30 03:07:00;;;;;;;92.85;44.38;;;;;;;-1.17;82.93;98257.47;1628389;87;21177;-70
2021/01/30 03:09:47;;;;;;;89.22;44.30;;;;;;;-1.26;83.94;98255.65;1625628;87;21254;-70
2021/01/30 03:12:24;;;;;;;92.97;44.20;;;;;;;-1.20;83.64;98259.50;1625747;87;21257;-70
2021/01/30 03:14:57;;;;;;;84.32;40.83;;;;;;;-1.21;83.66;98252.67;1623610;87;21985;-70
2021/01/30 03:17:25;;;;;;;92.08;45.38;;;;;;;-1.14;83.41;98250.74;1625286;87;21228;-71
2021/01/30 03:19:54;;;;;;;91.35;45.17;;;;;;;-1.19;83.91;98260.67;1625660;87;21581;-71
2021/01/30 03:22:19;;;;;;;95.80;44.65;;;;;;;-1.28;84.67;98257.07;1624917;87;21520;-70
2021/01/30 03:24:45;;;;;;;83.67;41.97;;;;;;;-1.34;85.01;98260.66;1625238;86;20978;-71
2021/01/30 03:27:32;;;;;;;79.73;41.53;;;;;;;-1.27;84.52;98259.20;1624097;87;21091;-71
2021/01/30 03:29:58;;;;;;;76.12;38.10;;;;;;;-1.23;84.29;98257.98;1622513;87;21691;-71
2021/01/30 03:32:25;;;;;;;75.10;38.83;;;;;;;-1.17;84.16;98260.06;1625684;87;21604;-70
2021/01/30 03:34:52;;;;;;;79.05;41.42;;;;;;;-1.14;83.92;98259.80;1626679;87;21240;-70
2021/01/30 03:37:18;;;;;;;60.33;29.87;;;;;;;-1.05;83.91;98250.94;1625911;87;21248;-71
2021/01/30 03:39:44;;;;;;;83.55;39.73;;;;;;;-1.03;83.72;98255.50;1627054;87;21241;-71
2021/01/30 03:42:10;;;;;;;84.20;41.67;;;;;;;-1.02;83.58;98249.38;1626441;87;20945;-71
2021/01/30 03:44:36;;;;;;;82.07;42.63;;;;;;;-0.99;83.35;98251.72;1626594;87;21061;-70
2021/01/30 03:47:02;;;;;;;84.80;43.65;;;;;;;-1.00;83.66;98250.06;1625957;87;21156;-71
2021/01/30 03:49:28;;;;;;;86.80;42.70;;;;;;;-1.00;83.84;98252.66;1625790;87;21033;-70
2021/01/30 03:51:53;;;;;;;89.63;46.73;;;;;;;-0.95;83.78;98253.08;1627207;87;21226;-70
2021/01/30 03:54:19;;;;;;;82.63;42.77;;;;;;;-0.98;83.90;98249.00;1624999;87;20955;-70
2021/01/30 03:56:46;;;;;;;83.27;42.37;;;;;;;-0.98;83.55;98245.56;1626004;87;21182;-72
2021/01/30 03:59:18;;;;;;;72.82;37.65;;;;;;;-0.93;83.74;98248.13;1625333;87;21232;-71
2021/01/30 04:01:43;;;;;;;69.22;36.68;;;;;;;-0.91;83.23;98246.21;1625456;87;21243;-71
2021/01/30 04:04:09;;;;;;;68.53;35.73;;;;;;;-0.93;83.03;98243.42;1627207;87;21113;-70
2021/01/30 04:06:35;;;;;;;61.58;32.30;;;;;;;-0.89;83.04;98243.98;1624473;87;21290;-70
2021/01/30 04:09:02;;;;;;;60.10;31.77;;;;;;;-0.98;82.59;98239.09;1627619;86;21286;-69
2021/01/30 04:11:29;;;;;;;65.70;34.30;;;;;;;-0.97;83.26;98234.26;1626182;87;21754;-71
2021/01/30 04:13:56;;;;;;;65.20;33.45;;;;;;;-0.99;83.46;98229.70;1626026;87;21241;-71
2021/01/30 04:16:23;;;;;;;59.55;32.08;;;;;;;-1.06;83.70;98231.16;1625285;87;21306;-71
2021/01/30 04:18:48;;;;;;;54.30;29.57;;;;;;;-1.05;83.67;98236.69;1628019;87;21663;-71
2021/01/30 04:21:14;;;;;;;57.10;32.60;;;;;;;-0.98;83.62;98235.20;1625675;87;21038;-70
2021/01/30 04:23:44;;;;;;;58.73;32.63;;;;;;;-1.01;83.44;98238.89;1626227;86;21132;-71
2021/01/30 04:26:09;;;;;;;59.38;31.65;;;;;;;-0.94;83.55;98241.28;1623655;87;21261;-71
2021/01/30 04:28:35;;;;;;;65.43;35.77;;;;;;;-0.99;83.31;98216.26;1622120;88;20994;-71
2021/01/30 04:31:01;;;;;;;63.20;34.27;;;;;;;-0.86;83.37;98226.39;1621548;86;21038;-71
2021/01/30 04:33:26;;;;;;;63.20;34.97;;;;;;;-0.82;83.14;98230.36;1622806;88;21205;-70
2021/01/30 04:35:52;;;;;;;55.60;31.73;;;;;;;-0.89;83.33;98237.02;1619558;88;21465;-71
2021/01/30 04:38:18;;;;;;;64.67;34.00;;;;;;;-1.09;83.36;98231.77;1621511;88;21005;-71
2021/01/30 04:40:45;;;;;;;67.77;35.37;;;;;;;-1.23;84.20;98226.91;1621864;88;21411;-71
2021/01/30 04:43:40;;;;;;;50.73;26.17;;;;;;;-1.37;85.03;98233.72;1622739;87;21718;-72
2021/01/30 04:46:17;;;;;;;67.67;33.70;;;;;;;-1.39;85.50;98228.67;1620186;87;21637;-71
2021/01/30 04:49:12;;;;;;;70.22;35.33;;;;;;;-1.35;85.48;98221.45;1594064;88;21141;-71
2021/01/30 04:51:48;;;;;;;58.10;29.55;;;;;;;-1.35;85.53;98218.88;1622596;88;21248;-71
2021/01/30 04:54:46;;;;;;;50.75;26.40;;;;;;;-1.22;85.18;98213.02;1622098;86;21743;-71
2021/01/30 04:57:21;;;;;;;;;;;;;;;-1.23;84.20;98213.96;1625132;87;21574;-71
2021/01/30 05:00:16;;;;;;;49.18;27.42;;;;;;;-1.19;84.25;98210.66;1620954;88;20303;-71
2021/01/30 05:03:00;;;;;;;50.75;27.15;;;;;;;-1.07;84.06;98216.55;1620746;88;21224;-71
2021/01/30 05:05:25;;;;;;;51.55;26.17;;;;;;;-1.05;83.80;98216.78;1621314;88;21232;-70
2021/01/30 05:07:59;;;;;;;52.80;28.90;;;;;;;-1.03;83.38;98216.64;1620758;88;21439;-69
2021/01/30 05:10:32;;;;;;;53.78;29.05;;;;;;;-1.06;83.52;98219.50;1619900;88;21256;-68
2021/01/30 05:13:28;;;;;;;60.15;32.33;;;;;;;-1.02;83.62;98212.63;1621851;88;21221;-71
2021/01/30 05:15:58;;;;;;;64.27;34.90;;;;;;;-1.04;83.82;98216.29;1620556;88;21282;-71
2021/01/30 05:18:41;;;;;;;64.12;35.08;;;;;;;-1.15;84.52;98214.16;1624657;88;21217;-72
2021/01/30 05:21:19;;;;;;;65.55;33.30;;;;;;;-1.07;84.55;98208.33;1623182;86;21363;-72
2021/01/30 05:23:50;;;;;;;57.75;32.10;;;;;;;-1.19;84.47;98204.99;1620782;88;21190;-72
2021/01/30 05:26:40;;;;;;;56.53;31.60;;;;;;;-1.16;84.65;98212.50;1619225;87;21254;-73
2021/01/30 05:29:14;;;;;;;59.33;31.65;;;;;;;-1.02;84.46;98217.00;1623081;88;21189;-72
2021/01/30 05:32:08;;;;;;;66.53;34.60;;;;;;;-0.93;84.28;98209.74;1624010;86;21241;-74
2021/01/30 05:35:01;;;;;;;67.03;35.75;;;;;;;-0.89;84.31;98209.80;1622000;88;22254;-73
2021/01/30 05:37:49;;;;;;;72.22;38.73;;;;;;;-0.86;84.40;98208.25;1620213;88;21263;-71
2021/01/30 05:40:29;;;;;;;77.00;39.48;;;;;;;-0.90;84.84;98203.00;1622207;86;21252;-72
2021/01/30 05:43:23;;;;;;;80.07;41.13;;;;;;;-0.86;85.05;98203.06;1619522;88;21255;-72
2021/01/30 05:45:56;;;;;;;78.07;39.73;;;;;;;-0.83;85.02;98204.09;1595201;88;21210;-73
2021/01/30 05:48:37;;;;;;;75.65;38.88;;;;;;;-0.81;84.95;98200.92;1621023;88;21241;-73
2021/01/30 05:51:35;;;;;;;73.83;38.60;;;;;;;-0.66;84.54;98197.95;1621131;88;21270;-73
2021/01/30 05:54:01;;;;;;;77.70;39.95;;;;;;;-0.58;83.87;98190.31;1622767;88;21229;-73
2021/01/30 05:56:31;;;;;;;82.47;43.00;;;;;;;-0.47;83.42;98197.97;1621156;88;20988;-73
2021/01/30 05:58:56;;;;;;;82.60;44.33;;;;;;;-0.43;83.07;98196.75;1622626;88;21236;-73
2021/01/30 06:01:27;;;;;;;87.00;43.80;;;;;;;-0.39;82.80;98196.84;1594746;86;21058;-73
2021/01/30 06:04:08;;;;;;;93.50;47.60;;;;;;;-0.33;82.69;98195.46;1623253;88;21700;-72
2021/01/30 06:06:53;;;;;;;91.57;46.92;;;;;;;-0.28;82.47;98197.19;1621759;87;21272;-73
2021/01/30 06:09:38;;;;;;;91.30;46.88;;;;;;;-0.23;82.25;98198.08;1622090;88;21269;-72
2021/01/30 06:12:26;;;;;;;101.62;47.95;;;;;;;-0.16;82.17;98200.45;1623226;88;21992;-72
2021/01/30 06:14:54;;;;;;;93.40;47.00;;;;;;;-0.12;81.89;98201.83;1621978;88;21318;-73
2021/01/30 06:17:30;;;;;;;103.10;52.05;;;;;;;-0.15;81.28;98174.86;1619776;88;21248;-73
2021/01/30 06:20:18;;;;;;;99.72;50.25;;;;;;;-0.15;81.28;98174.86;1622758;87;21283;-73
2021/01/30 06:22:45;;;;;;;95.20;50.12;;;;;;;-0.01;81.35;98187.41;1620029;86;21271;-72
2021/01/30 06:25:29;;;;;;;98.95;50.73;;;;;;;0.00;81.12;98184.36;1606941;86;38835;-72
2021/01/30 06:28:24;;;;;;;99.35;51.05;;;;;;;0.05;81.04;98183.92;1601976;88;22881;-73
2021/01/30 06:30:50;;;;;;;99.20;50.50;;;;;;;0.02;80.35;98171.22;1599730;88;21261;-73
2021/01/30 06:33:27;;;;;;;98.60;48.80;;;;;;;0.02;80.35;98171.22;1600756;88;21010;-74
2021/01/30 06:36:09;;;;;;;96.05;49.70;;;;;;;0.15;80.53;98192.52;1602821;88;21270;-72
2021/01/30 06:38:44;;;;;;;91.75;49.53;;;;;;;0.04;80.49;98177.11;1601976;88;21255;-73
2021/01/30 06:41:28;;;;;;;99.62;49.70;;;;;;;0.12;80.05;98177.23;1601988;88;22061;-73
2021/01/30 06:44:00;;;;;;;92.57;48.87;;;;;;;0.12;80.05;98177.23;1595932;88;21261;-73
2021/01/30 06:46:25;;;;;;;101.87;52.13;;;;;;;0.26;80.05;98191.55;1593144;88;21700;-73
2021/01/30 06:48:53;;;;;;;100.03;51.00;;;;;;;0.24;79.59;98191.70;1606103;88;24934;-71
2021/01/30 06:51:36;;;;;;;99.37;51.08;;;;;;;0.28;79.72;98187.87;1605283;87;21290;-73
2021/01/30 06:54:22;;;;;;;99.25;51.00;;;;;;;0.30;79.60;98191.14;1599677;88;21256;-73
2021/01/30 06:57:02;;;;;;;98.20;53.17;;;;;;;0.31;79.57;98191.49;1530844;88;21243;-71
2021/01/30 06:59:30;;;;;;;90.38;49.25;;;;;;;0.29;79.46;98180.41;1600027;88;21723;-72
2021/01/30 07:01:56;;;;;;;101.02;52.58;;;;;;;0.31;79.18;98190.20;1597903;88;21169;-71
2021/01/30 07:04:45;;;;;;;95.23;49.83;;;;;;;0.33;79.29;98191.35;1602057;88;21178;-73
2021/01/30 07:07:27;;;;;;;95.00;48.60;;;;;;;0.31;79.06;98190.20;1601678;88;21265;-71
2021/01/30 07:10:16;;;;;;;92.95;49.83;;;;;;;0.32;78.90;98194.41;1600890;88;21649;-72
2021/01/30 07:12:56;;;;;;;95.70;50.28;;;;;;;0.26;78.90;98194.97;1599673;88;21253;-71
2021/01/30 07:15:28;;;;;;;101.87;53.75;;;;;;;0.06;79.24;98194.65;1607484;88;21257;-71
2021/01/30 07:18:30;;;;;;;107.63;55.48;;;;;;;-0.03;80.28;98193.23;1608293;88;21130;-72
2021/01/30 07:21:19;;;;;;;102.50;54.48;;;;;;;-0.17;80.52;98198.83;1607167;88;21265;-71
2021/01/30 07:24:18;;;;;;;109.32;52.08;;;;;;;-0.22;80.95;98199.70;1602787;88;21203;-70
2021/01/30 07:27:01;;;;;;;105.40;53.28;;;;;;;-0.26;81.15;98202.24;1625860;87;22536;-71
2021/01/30 07:30:00;;;;;;;92.92;49.23;;;;;;;-0.22;81.15;98177.66;1627645;87;21230;-71
2021/01/30 07:32:30;;;;;;;90.92;49.73;;;;;;;-0.22;81.15;98191.92;1627288;86;21645;-71
2021/01/30 07:35:24;;;;;;;97.80;50.25;;;;;;;-0.24;80.83;98189.46;1630056;87;21538;-71
2021/01/30 07:37:55;;;;;;;96.47;48.68;;;;;;;-0.07;80.68;98194.45;1628999;87;21661;-72
2021/01/30 07:40:41;;;;;;;99.67;49.00;;;;;;;-0.02;80.48;98188.39;1628323;87;21314;-71
2021/01/30 07:43:12;;;;;;;93.07;49.08;;;;;;;0.05;80.33;98190.41;1628120;87;21256;-71
2021/01/30 07:45:43;;;;;;;96.63;49.33;;;;;;;0.10;80.21;98189.53;1630756;87;21209;-71
2021/01/30 07:48:31;;;;;;;97.53;51.88;;;;;;;0.13;80.29;98189.26;1629370;87;22197;-71
2021/01/30 07:51:05;;;;;;;101.35;51.45;;;;;;;0.07;80.43;98183.33;1627047;87;21237;-72
2021/01/30 07:53:30;;;;;;;109.80;53.05;;;;;;;0.21;80.25;98180.78;1626162;87;21249;-71
2021/01/30 07:56:19;;;;;;;99.03;52.43;;;;;;;0.15;79.96;98182.14;1627161;87;24495;-72
2021/01/30 07:58:54;;;;;;;96.92;51.20;;;;;;;0.21;80.15;98184.67;1622205;86;21253;-71
2021/01/30 08:01:54;;;;;;;87.40;45.38;;;;;;;0.06;80.10;98176.48;1629377;87;21315;-71
2021/01/30 08:04:40;;;;;;;81.30;44.53;;;;;;;-0.05;80.09;98177.45;1627642;86;21784;-71
2021/01/30 08:07:32;;;;;;;80.80;40.13;;;;;;;-0.05;80.09;98177.45;1625017;87;21368;-70
2021/01/30 08:10:26;;;;;;;84.22;44.75;;;;;;;-0.05;80.75;98178.28;1626125;87;21250;-71
2021/01/30 08:13:19;;;;;;;104.92;52.55;;;;;;;0.06;80.66;98181.67;1626818;86;21253;-71
2021/01/30 08:15:50;;;;;;;96.05;47.23;;;;;;;-0.13;80.20;98184.61;1584202;87;21277;-71
2021/01/30 08:18:30;;;;;;;91.22;45.60;;;;;;;-0.21;80.68;98190.48;1627350;87;21746;-71
2021/01/30 08:21:19;;;;;;;90.25;46.08;;;;;;;-0.27;80.99;98188.92;1624069;87;21252;-70
2021/01/30 08:24:21;;;;;;;87.70;44.75;;;;;;;-0.37;81.09;98191.03;1628587;87;21281;-71
2021/01/30 08:27:00;;;;;;;80.83;41.28;;;;;;;-0.31;81.20;98187.55;1621781;86;21169;-70
2021/01/30 08:29:42;;;;;;;79.45;41.80;;;;;;;-0.38;80.83;98188.08;1621016;86;21290;-70
2021/01/30 08:32:29;;;;;;;87.37;44.60;;;;;;;-0.29;81.81;98189.55;1618927;86;21260;-71
2021/01/30 08:35:15;;;;;;;88.78;43.17;;;;;;;-0.29;81.81;98189.55;1622910;86;21205;-72
2021/01/30 08:37:41;;;;;;;82.27;42.10;;;;;;;-0.27;81.79;98187.14;1619866;88;21250;-71
2021/01/30 08:40:13;;;;;;;79.60;39.70;;;;;;;-0.13;81.75;98176.83;1622179;86;21767;-73
2021/01/30 08:42:58;;;;;;;85.10;43.33;;;;;;;-0.08;81.21;98179.02;1622772;87;21925;-73
2021/01/30 08:45:32;;;;;;;85.17;42.38;;;;;;;0.06;81.19;98179.08;1606434;86;21714;-74
2021/01/30 08:48:26;;;;;;;75.62;41.02;;;;;;;0.09;80.81;98187.89;1624391;86;21257;-70
2021/01/30 08:50:52;;;;;;;76.80;39.53;;;;;;;0.12;80.55;98187.61;1624216;87;21699;-73
2021/01/30 08:53:27;;;;;;;76.90;41.45;;;;;;;0.08;80.74;98174.10;1620482;86;21615;-74
2021/01/30 08:56:01;;;;;;;83.25;44.25;;;;;;;0.02;80.75;98159.09;1622643;86;21261;-74
2021/01/30 08:58:39;;;;;;;89.17;46.28;;;;;;;0.02;80.75;98159.09;1622158;88;21308;-74
2021/01/30 09:01:12;;;;;;;92.22;46.65;;;;;;;0.05;80.72;98170.94;1624127;86;21328;-74
2021/01/30 09:03:51;;;;;;;92.57;47.08;;;;;;;0.01;80.80;98174.79;1610195;86;21233;-74
2021/01/30 09:06:42;;;;;;;89.35;44.90;;;;;;;-0.20;80.96;98186.14;1622892;88;21163;-74
2021/01/30 09:09:19;;;;;;;78.12;41.75;;;;;;;-0.11;81.10;98185.32;1624031;88;21665;-74
2021/01/30 09:11:56;;;;;;;70.78;38.17;;;;;;;0.03;81.25;98170.27;1622191;86;21238;-72
2021/01/30 09:14:27;;;;;;;69.97;36.80;;;;;;;0.21;80.58;98178.99;1624242;86;21262;-72
2021/01/30 09:17:07;;;;;;;68.22;36.98;;;;;;;0.13;79.83;98176.28;1625860;87;21503;-75
2021/01/30 09:20:11;;;;;;;68.25;36.38;;;;;;;0.20;79.99;98185.63;1623182;86;21218;-75
2021/01/30 09:22:53;;;;;;;61.85;34.78;;;;;;;0.25;80.08;98175.17;1620089;88;21265;-76
2021/01/30 09:25:34;;;;;;;61.53;33.88;;;;;;;0.14;79.81;98190.42;1588780;88;21330;-76
2021/01/30 09:28:05;;;;;;;60.43;33.60;;;;;;;-0.01;80.40;98190.01;1645979;87;21623;-73
2021/01/30 09:30:51;;;;;;;63.80;34.90;;;;;;;-0.12;80.31;98194.05;1646512;87;21278;-74
2021/01/30 09:33:27;;;;;;;61.90;34.65;;;;;;;-0.08;80.79;98189.39;1646541;87;21248;-74
2021/01/30 09:36:07;;;;;;;58.63;34.13;;;;;;;0.09;80.53;98189.19;1644641;87;21212;-74
2021/01/30 09:38:38;;;;;;;62.58;33.88;;;;;;;-0.24;80.94;98173.09;1645133;87;21583;-74
2021/01/30 09:41:21;;;;;;;56.80;31.10;;;;;;;-0.10;81.23;98186.94;1646269;87;21155;-73
2021/01/30 09:43:47;;;;;;;62.58;30.52;;;;;;;-0.02;80.84;98181.91;1629501;87;21232;-74
2021/01/30 09:46:20;;;;;;;60.83;32.67;;;;;;;-0.03;80.87;98185.94;1646031;87;21153;-74
2021/01/30 09:48:46;;;;;;;57.65;33.25;;;;;;;0.09;80.74;98189.19;1644942;85;21715;-74
2021/01/30 09:51:12;;;;;;;58.63;32.00;;;;;;;0.15;80.78;98190.73;1645705;87;20974;-74
2021/01/30 09:53:49;;;;;;;60.50;34.53;;;;;;;0.15;80.31;98193.82;1646224;87;20942;-73
2021/01/30 09:56:17;;;;;;;55.17;30.65;;;;;;;0.16;80.27;98191.58;1645956;87;21220;-74
2021/01/30 09:58:45;;;;;;;53.05;31.70;;;;;;;0.12;80.05;98195.39;1645589;87;21189;-73
2021/01/30 10:01:19;;;;;;;55.55;31.68;;;;;;;0.14;80.44;98198.66;1645483;87;21221;-74
2021/01/30 10:03:45;;;;;;;52.17;31.57;;;;;;;0.16;79.85;98195.47;1643893;86;21295;-74
2021/01/30 10:06:18;;;;;;;56.67;32.97;;;;;;;-0.06;80.53;98199.98;1646075;87;20978;-75
2021/01/30 10:08:44;;;;;;;60.17;34.65;;;;;;;-0.06;81.07;98198.69;1647715;85;21294;-73
2021/01/30 10:11:16;;;;;;;62.13;34.65;;;;;;;-0.05;81.24;98196.91;1619698;87;21273;-72
2021/01/30 10:13:49;;;;;;;58.23;33.92;;;;;;;0.04;81.25;98204.36;1644434;87;21736;-74
2021/01/30 10:16:18;;;;;;;47.88;33.10;;;;;;;0.04;81.16;98192.68;1643875;86;21263;-74
2021/01/30 10:18:49;;;;;;;55.45;32.93;;;;;;;0.12;80.22;98206.59;1644292;87;21253;-73
2021/01/30 10:21:15;;;;;;;55.08;32.08;;;;;;;0.23;79.92;98208.22;1645080;86;21595;-74
2021/01/30 10:23:47;;;;;;;59.30;34.60;;;;;;;0.30;79.83;98213.20;1640546;85;20986;-73
2021/01/30 10:26:24;;;;;;;58.85;36.48;;;;;;;0.34;79.79;98208.09;1642707;86;21287;-73
2021/01/30 10:28:56;;;;;;;58.40;33.08;;;;;;;0.37;80.17;98213.95;1629715;85;21257;-74
2021/01/30 10:31:37;;;;;;;60.75;34.70;;;;;;;0.32;79.46;98213.88;1627204;86;21220;-74
2021/01/30 10:34:26;;;;;;;62.43;36.13;;;;;;;0.46;79.66;98206.62;1623873;87;21697;-75
2021/01/30 10:37:15;;;;;;;59.55;33.63;;;;;;;0.47;79.43;98206.97;1628202;87;21654;-73
2021/01/30 10:39:48;;;;;;;59.80;34.10;;;;;;;0.44;79.56;98203.36;1626886;87;21285;-74
2021/01/30 10:42:21;;;;;;;58.42;34.53;;;;;;;0.39;80.02;98206.38;1626255;85;21236;-72
2021/01/30 10:44:48;;;;;;;60.78;36.55;;;;;;;0.41;80.04;98210.13;1626234;87;21252;-75
2021/01/30 10:47:14;;;;;;;55.70;32.78;;;;;;;0.40;80.56;98212.38;1626200;87;21228;-74
2021/01/30 10:49:40;;;;;;;57.77;37.17;;;;;;;0.41;80.79;98210.94;1626853;86;23798;-73
2021/01/30 10:52:25;;;;;;;59.95;35.28;;;;;;;0.31;81.30;98210.96;1624680;87;21268;-72
2021/01/30 10:54:51;;;;;;;61.60;34.20;;;;;;;0.37;81.29;98211.36;1604291;87;21287;-73
2021/01/30 10:57:25;;;;;;;60.00;36.27;;;;;;;0.24;82.02;98217.66;1625946;87;20939;-74
2021/01/30 11:00:01;;;;;;;70.67;38.35;;;;;;;0.04;82.30;98223.33;1628386;87;21222;-73
2021/01/30 11:02:38;;;;;;;66.97;36.90;;;;;;;-0.01;83.33;98225.04;1629342;87;21261;-72
2021/01/30 11:05:19;;;;;;;67.10;39.15;;;;;;;-0.14;83.79;98229.69;1626146;86;21415;-74
2021/01/30 11:07:51;;;;;;;62.88;36.13;;;;;;;-0.25;83.94;98220.72;1626438;86;21280;-73
2021/01/30 11:10:35;;;;;;;67.67;38.45;;;;;;;-0.20;83.97;98214.67;1629400;87;21718;-71
2021/01/30 11:13:23;;;;;;;69.05;38.25;;;;;;;-0.20;84.44;98218.56;1627559;87;21270;-76
2021/01/30 11:15:49;;;;;;;73.80;38.13;;;;;;;-0.29;85.16;98223.27;1629415;87;21237;-77
2021/01/30 11:18:30;;;;;;;74.37;39.30;;;;;;;-0.22;84.88;98225.64;1627882;87;21256;-75
2021/01/30 11:20:56;;;;;;;75.80;41.33;;;;;;;-0.33;85.66;98223.17;1624573;86;21225;-75
2021/01/30 11:23:41;;;;;;;75.17;37.78;;;;;;;-0.28;86.01;98228.77;1630675;87;21232;-77
2021/01/30 11:26:38;;;;;;;67.87;38.20;;;;;;;-0.26;85.92;98224.29;1629526;87;21283;-80
2021/01/30 11:29:08;;;;;;;65.65;36.42;;;;;;;-0.27;85.96;98222.64;1624929;87;21244;-75
2021/01/30 11:31:37;;;;;;;68.00;39.58;;;;;;;-0.25;86.26;98214.23;1621647;87;21305;-79
2021/01/30 11:34:03;;;;;;;66.90;37.53;;;;;;;-0.25;86.26;98214.23;1630519;87;21596;-76
2021/01/30 11:36:28;;;;;;;60.97;34.57;;;;;;;-0.21;86.30;98228.58;1628471;87;21724;-77
2021/01/30 11:39:01;;;;;;;58.43;33.67;;;;;;;-0.16;86.38;98225.09;1630773;87;20975;-75
2021/01/30 11:41:27;;;;;;;58.70;33.90;;;;;;;-0.24;86.16;98211.50;1629235;87;21237;-80
2021/01/30 11:43:53;;;;;;;60.63;33.70;;;;;;;-0.12;86.57;98225.18;1627197;87;21276;-78
2021/01/30 11:46:19;;;;;;;62.13;31.35;;;;;;;-0.11;86.53;98226.83;1629841;87;21181;-77
2021/01/30 11:48:46;;;;;;;51.53;30.02;;;;;;;-0.13;85.74;98233.91;1628165;87;21557;-78
2021/01/30 11:51:28;;;;;;;56.40;30.40;;;;;;;-0.06;85.68;98231.13;1629814;87;21589;-74
2021/01/30 11:53:54;;;;;;;60.00;33.48;;;;;;;0.01;85.58;98229.28;1628400;87;21693;-74
2021/01/30 11:56:21;;;;;;;67.37;36.00;;;;;;;-0.05;86.35;98234.07;1627482;87;21307;-75